Latest Weather Observations for Canberra

IDN60901

Issued at 9:41 pm EST Tuesday 26 May 2015 (issued every 10 minutes, with the page automatically refreshed every 10 minutes)

About weather observations | Map of Canberra area stations | Latest observations for Canberra area | Other Formats
Station Details ID: 070351 Name: CANBERRA AIRPORT Lat: -35.31 Lon: 149.20 Height: 577.05 m
Data from the previous 72 hours. | See also: Recent months at Canberra
Date/Time
EST
Tmp

°C
App
Tmp
°C
Dew
Point
°C
Rel
Hum
%
Delta-T

°C
Wind Press
QNH
hPa
Press
MSL
hPa
Rain
since
9 am
mm
Dir
 
Spd
km/h
Gust
km/h
Spd
kts
Gust
kts
26/09:30pm 5.6 2.8 2.9 83 1.1 E 7 11 4 6 1026.3 - 0.0
26/09:00pm 6.0 3.9 3.7 85 1.0 S 4 9 2 5 1026.8 1027.2 0.0
26/08:30pm 5.6 3.0 3.3 85 1.0 SE 6 9 3 5 1026.8 - 0.0
26/08:00pm 6.6 3.5 3.8 82 1.2 N 9 11 5 6 1026.7 - 0.0
26/07:30pm 6.5 3.8 3.7 82 1.2 NNW 7 11 4 6 1026.5 - 0.0
26/07:00pm 7.2 4.1 3.6 78 1.6 E 9 9 5 5 1026.5 - 0.0
26/06:30pm 6.5 3.4 3.7 82 1.2 ESE 9 11 5 6 1026.5 - 0.0
26/06:00pm 7.7 5.1 3.2 73 2.0 ENE 6 7 3 4 1026.4 1026.9 0.0
26/05:30pm 10.1 8.8 4.0 66 2.8 CALM 0 6 0 3 1026.3 - 0.0
26/05:00pm 9.7 6.3 2.1 59 3.3 WNW 9 13 5 7 1026.1 - 0.0
26/04:30pm 10.5 7.3 3.1 60 3.3 NW 9 11 5 6 1025.9 - 0.0
26/04:00pm 11.9 8.3 2.9 54 4.1 WNW 11 15 6 8 1025.9 - 0.0
26/03:30pm 12.2 8.3 3.4 55 4.0 WNW 13 15 7 8 1025.9 - 0.0
26/03:00pm 13.0 9.4 3.1 51 4.5 WNW 11 15 6 8 1026.0 1026.5 0.0
26/02:30pm 14.3 10.7 2.9 46 5.3 NNW 11 15 6 8 1026.2 - 0.0
26/02:00pm 14.1 10.6 3.3 48 5.0 NW 11 15 6 8 1026.5 - 0.0
26/01:30pm 13.0 9.7 2.3 48 4.8 WSW 9 11 5 6 1027.1 - 0.0
26/01:00pm 12.9 9.8 3.8 54 4.2 W 9 13 5 7 1027.4 - 0.0
26/12:30pm 11.9 9.2 3.7 57 3.8 WNW 7 11 4 6 1027.8 - 0.0
26/12:00pm 11.2 8.5 3.7 60 3.4 W 7 9 4 5 1028.5 1029.0 0.0
26/11:30am 10.6 8.1 3.6 62 3.2 NW 6 9 3 5 1029.2 - 0.0
26/11:00am 8.6 6.8 3.2 69 2.4 SSW 2 9 1 5 1029.7 - 0.0
26/10:30am 7.1 4.3 2.0 70 2.2 W 6 9 3 5 1030.1 - 0.0
26/10:00am 5.6 2.7 1.5 75 1.7 W 6 9 3 5 1030.5 - 0.0
26/09:30am 4.6 1.8 1.8 82 1.2 NW 6 7 3 4 1030.5 - 0.0
26/08:00am -2.0 -4.3 -2.3 98 0.0 CALM 0 - 0 - 1030.6 - 0.0
26/07:37am -2.9 -5.3 -3.0 99 -0.1 CALM 0 - 0 - 1030.5 - 0.0
26/07:34am -3.0 -5.4 -3.1 99 -0.1 CALM 0 - 0 - 1030.5 - 0.0
26/07:30am -2.8 -5.2 -2.9 99 -0.1 CALM 0 - 0 - 1030.4 - 0.0
26/07:26am -3.1 -5.5 -3.4 98 0.0 CALM 0 - 0 - 1030.4 - 0.0
26/07:11am -2.5 -4.8 -2.6 99 -0.1 CALM 0 - 0 - 1030.4 - 0.0
26/07:00am -2.7 -5.8 -2.8 99 -0.1 ESE 4 7 2 4 1030.4 - 0.0
26/06:37am -4.0 -6.5 -4.4 97 0.0 CALM 0 0 0 0 1029.9 - 0.0
26/06:30am -3.3 -5.8 -3.6 98 0.0 CALM 0 - 0 - 1029.8 - 0.0
26/06:06am -3.7 -7.4 -4.1 97 0.0 E 6 7 3 4 1029.5 - 0.0
26/05:30am -3.0 -7.1 -3.3 98 0.0 N 9 9 5 5 1029.0 - 0.0
26/05:00am -3.5 -6.0 -3.9 97 0.0 CALM 0 - 0 - 1029.0 - 0.0
26/04:30am -2.8 -5.2 -3.2 97 0.0 CALM 0 0 0 0 1029.4 - 0.0
26/04:00am -2.5 -6.2 -3.0 96 0.1 N 7 9 4 5 1029.6 - 0.0
26/03:52am -2.8 -6.9 -3.3 96 0.0 N 9 9 5 5 1029.5 - 0.0
26/03:30am -2.1 -5.6 -2.5 97 0.0 SW 6 7 3 4 1029.6 - 0.0
26/03:29am -2.0 -5.4 -2.4 97 0.0 SW 6 7 3 4 1029.7 - 0.0
26/03:00am -2.4 -6.1 -2.9 96 0.1 S 7 9 4 5 1029.9 1030.5 0.0
26/02:30am -1.8 -4.5 -2.4 96 0.1 NNE 2 6 1 3 1030.3 - 0.0
26/02:00am -2.2 -6.4 -3.5 91 0.3 NNW 9 9 5 5 1030.1 - 0.0
26/01:30am -0.9 -3.1 -1.7 94 0.2 CALM 0 0 0 0 1030.0 - 0.0
26/01:00am 0.0 -2.1 -0.6 96 0.2 CALM 0 0 0 0 1030.0 - 0.0
26/12:30am 0.0 -2.1 -1.0 93 0.4 CALM 0 0 0 0 1030.3 - 0.0
26/12:00am 0.5 -2.7 -0.8 91 0.5 N 6 7 3 4 1030.5 1031.0 0.0
 
Date/Time
EST
Tmp

°C
App
Tmp
°C
Dew
Point
°C
Rel
Hum
%
Delta-T

°C
Wind Press
QNH
hPa
Press
MSL
hPa
Rain
since
9 am
mm
Dir
 
Spd
km/h
Gust
km/h
Spd
kts
Gust
kts
25/11:30pm 1.7 -0.2 0.7 93 0.4 CALM 0 0 0 0 1030.4 - 0.0
25/11:00pm 2.8 1.1 2.1 95 0.3 CALM 0 0 0 0 1030.5 - 0.0
25/10:30pm 2.0 -0.2 0.8 92 0.5 N 2 9 1 5 1030.4 - 0.0
25/10:00pm 2.4 -0.6 0.8 89 0.6 N 6 11 3 6 1030.7 - 0.0
25/09:30pm 2.2 -0.4 1.2 93 0.4 ESE 4 7 2 4 1030.7 - 0.0
25/09:00pm 2.2 0.4 0.9 91 0.5 CALM 0 0 0 0 1030.7 1031.2 0.0
25/08:30pm 1.9 -1.4 0.3 89 0.6 N 7 9 4 5 1030.5 - 0.0
25/08:00pm 2.7 -0.9 0.6 86 0.8 ESE 9 9 5 5 1030.4 - 0.0
25/07:30pm 2.3 -0.9 0.5 88 0.7 S 7 7 4 4 1030.3 - 0.0
25/07:00pm 2.6 0.6 0.2 84 0.9 CALM 0 2 0 1 1029.9 - 0.0
25/06:30pm 4.5 1.4 1.4 80 1.3 ENE 7 9 4 5 1029.6 - 0.0
25/06:00pm 5.9 3.0 2.4 78 1.5 E 7 7 4 4 1029.3 1029.8 0.0
25/05:30pm 5.9 2.7 0.9 70 2.0 N 7 9 4 5 1029.0 - 0.0
25/05:00pm 10.6 7.9 2.7 58 3.5 S 6 7 3 4 1028.9 - 0.0
25/04:30pm 12.8 10.3 3.5 53 4.3 SSW 6 7 3 4 1029.0 - 0.0
25/04:00pm 13.8 12.0 3.6 50 4.8 WSW 2 7 1 4 1029.0 - 0.0
25/03:30pm 14.0 11.3 3.5 49 4.9 WNW 7 11 4 6 1029.3 - 0.0
25/03:00pm 13.5 11.7 3.6 51 4.6 NW 2 7 1 4 1029.3 1029.8 0.0
25/02:30pm 12.6 10.0 3.3 53 4.3 SW 6 9 3 5 1029.3 - 0.0
25/02:00pm 12.2 9.4 3.2 54 4.1 SSW 7 11 4 6 1029.4 - 0.0
25/01:30pm 11.9 9.0 2.6 53 4.2 WSW 7 11 4 6 1029.5 - 0.0
25/01:00pm 11.6 8.9 2.9 55 3.9 W 6 9 3 5 1029.8 - 0.0
25/12:30pm 10.1 7.3 2.2 58 3.5 N 6 11 3 6 1030.3 - 0.0
25/12:00pm 9.7 7.4 2.6 61 3.1 NW 4 7 2 4 1031.0 1031.5 0.0
25/11:30am 9.1 6.7 2.4 63 2.9 N 4 9 2 5 1031.2 - 0.0
25/11:00am 7.8 5.4 2.1 67 2.4 NE 4 7 2 4 1031.7 - 0.0
25/10:30am 6.0 3.0 1.9 75 1.7 WSW 7 11 4 6 1032.3 - 0.0
25/10:00am 4.9 2.8 1.4 78 1.4 N 2 6 1 3 1032.0 - 0.0
25/09:30am 4.1 2.3 1.3 82 1.1 CALM 0 0 0 0 1032.3 - 0.0
25/09:00am 3.3 1.5 1.0 85 0.9 CALM 0 0 0 0 1032.7 1033.2 -
25/08:30am 2.2 0.3 0.6 89 0.6 CALM 0 6 0 3 1032.5 - 0.0
25/08:00am 0.7 -2.1 -0.2 94 0.3 W 4 7 2 4 1032.4 - 0.0
25/07:30am 0.4 -2.8 -0.7 92 0.4 N 6 7 3 4 1031.8 - 0.0
25/07:00am 0.1 -2.8 -1.0 92 0.4 N 4 9 2 5 1032.4 - 0.0
25/06:30am -0.3 -2.5 -1.7 90 0.5 CALM 0 0 0 0 1032.0 - 0.0
25/06:00am 0.3 -1.8 -0.7 93 0.4 CALM 0 0 0 0 1031.7 1032.3 0.0
25/05:30am -0.1 -2.3 -1.2 92 0.4 CALM 0 0 0 0 1031.8 - 0.0
25/05:00am -0.1 -2.3 -1.2 92 0.4 CALM 0 6 0 3 1031.4 - -
25/04:30am 0.0 -3.4 -0.8 94 0.3 N 7 7 4 4 1031.4 - 0.0
25/04:00am -0.9 -3.6 -2.5 89 0.5 N 2 9 1 5 1031.4 - 0.0
25/03:30am -0.4 -2.6 -1.4 93 0.3 CALM 0 0 0 0 1031.5 - 0.0
25/03:00am -0.4 -2.9 -1.2 94 0.3 NNE 2 6 1 3 1031.7 1032.3 0.0
25/02:30am -1.6 -4.0 -3.0 90 0.4 CALM 0 0 0 0 1031.9 - 0.0
25/02:00am -0.4 -2.9 -1.2 94 0.3 NE 2 7 1 4 1032.0 - 0.0
25/01:30am -0.5 -4.0 -1.6 92 0.4 N 7 9 4 5 1032.4 - 0.0
25/01:00am -0.8 -3.1 -2.4 89 0.5 CALM 0 0 0 0 1032.3 - 0.0
25/12:30am -0.2 -2.4 -1.8 89 0.6 CALM 0 0 0 0 1032.3 - 0.0
25/12:00am 0.6 -2.4 -1.5 86 0.8 ENE 4 7 2 4 1032.3 1032.8 0.0
 
Date/Time
EST
Tmp

°C
App
Tmp
°C
Dew
Point
°C
Rel
Hum
%
Delta-T

°C
Wind Press
QNH
hPa
Press
MSL
hPa
Rain
since
9 am
mm
Dir
 
Spd
km/h
Gust
km/h
Spd
kts
Gust
kts
24/11:30pm 1.0 -1.2 -1.2 85 0.8 CALM 0 6 0 3 1032.4 - 0.0
24/11:00pm 1.6 -1.7 -0.2 88 0.7 N 7 9 4 5 1032.6 - 0.0
24/10:30pm 1.4 -2.0 -1.8 79 1.2 SSE 6 7 3 4 1032.5 - 0.0
24/10:00pm 2.5 -1.2 -0.1 83 1.0 SE 9 11 5 6 1032.5 - 0.0
24/09:30pm 2.3 0.3 0.0 85 0.9 CALM 0 0 0 0 1032.3 - 0.0
24/09:00pm 3.0 -0.3 0.4 83 1.0 N 7 9 4 5 1032.2 1032.7 0.0
24/08:30pm 3.7 1.1 0.7 81 1.2 ESE 4 6 2 3 1032.3 - 0.0
24/08:00pm 3.9 2.1 0.9 81 1.2 CALM 0 0 0 0 1032.0 - 0.0
24/07:30pm 3.6 0.3 0.3 79 1.3 NNW 7 9 4 5 1031.7 - 0.0
24/07:00pm 3.8 1.8 -0.2 75 1.6 CALM 0 4 0 2 1031.5 - 0.0
24/06:30pm 4.1 1.0 0.3 76 1.5 SSE 6 7 3 4 1031.4 - 0.0
24/06:00pm 5.5 3.6 0.7 71 1.9 CALM 0 0 0 0 1031.3 1031.8 0.0
24/05:30pm 6.1 3.1 0.9 69 2.1 NE 6 7 3 4 1031.1 - 0.0
24/05:00pm 7.7 4.4 0.2 59 3.1 NNE 7 9 4 5 1030.8 - 0.0
24/04:30pm 10.8 6.5 0.8 50 4.3 NW 13 13 7 7 1030.7 - 0.0
24/04:00pm 13.8 9.8 0.5 40 5.8 NW 11 13 6 7 1030.5 - 0.0
24/03:30pm 15.0 10.5 -0.3 35 6.6 WNW 13 15 7 8 1030.4 - 0.0
24/03:00pm 15.6 11.6 0.2 35 6.7 WNW 11 15 6 8 1030.5 1031.0 0.0
24/02:30pm 15.7 12.1 0.7 36 6.7 NW 9 13 5 7 1030.3 - 0.0
24/02:00pm 14.9 11.2 0.0 36 6.5 NNW 9 11 5 6 1030.6 - 0.0
24/01:30pm 14.2 10.8 -0.6 36 6.3 NNW 7 11 4 6 1030.8 - 0.0
24/01:00pm 12.8 9.7 -0.1 41 5.5 WNW 6 11 3 6 1031.2 - 0.0
24/12:30pm 12.9 9.8 0.3 42 5.4 NW 6 9 3 5 1031.4 - 0.0
24/12:00pm 11.6 8.7 -0.9 42 5.1 WNW 4 7 2 4 1031.8 1032.4 0.0
24/11:30am 9.5 6.2 -1.2 47 4.3 NNW 6 7 3 4 1032.3 - 0.0
24/11:00am 7.7 4.5 -0.3 57 3.2 W 6 9 3 5 1032.6 - 0.0
24/10:30am 6.2 2.8 -0.5 62 2.7 NW 7 9 4 5 1032.7 - 0.0
24/10:00am 5.0 1.3 0.2 71 1.9 WNW 9 11 5 6 1032.7 - 0.0
24/09:30am 3.5 0.9 0.9 83 1.0 WNW 4 7 2 4 1032.7 - 0.0
24/09:00am 2.3 0.4 0.8 90 0.6 CALM 0 0 0 0 1032.9 1033.5 0.0
24/08:30am -0.9 -4.2 -1.6 95 0.2 NNW 6 7 3 4 1033.0 - 0.0
24/08:21am -1.9 -4.6 -2.5 96 0.1 WNW 2 7 1 4 1032.9 - 0.0
24/08:00am -2.8 -6.0 -3.3 96 0.0 W 4 7 2 4 1032.6 - 0.0
24/07:30am -4.4 -7.0 -4.8 97 -0.1 CALM 0 0 0 0 1032.3 - 0.0
24/07:19am -5.1 -7.8 -5.8 95 0.0 CALM 0 0 0 0 1032.3 - 0.0
24/07:10am -5.8 -8.6 -6.6 94 0.0 CALM 0 0 0 0 1032.2 - 0.0
24/07:00am -5.1 -8.1 -5.6 96 0.0 ENE 2 6 1 3 1032.0 - 0.0
24/06:49am -5.5 -9.0 -6.2 95 0.0 ENE 4 6 2 3 1031.9 - 0.0
24/06:30am -5.5 -9.9 -6.2 95 0.0 NNW 9 9 5 5 1031.7 - 0.0
24/06:23am -5.3 -9.7 -6.0 95 0.0 NNW 9 9 5 5 1031.6 - 0.0
24/06:17am -4.7 -8.5 -5.4 95 0.0 NNW 6 9 3 5 1031.5 - 0.0
24/06:00am -4.1 -7.4 -4.6 96 0.0 N 4 6 2 3 1031.2 1031.7 0.0
24/05:46am -3.6 -7.2 -4.0 97 0.0 NNE 6 7 3 4 1031.1 - 0.0
24/05:36am -4.6 -8.4 -5.1 96 0.0 N 6 7 3 4 1031.0 - 0.0
24/05:30am -4.7 -8.5 -5.2 96 0.0 N 6 7 3 4 1031.1 - 0.0
24/05:00am -4.2 -6.8 -4.6 97 0.0 CALM 0 0 0 0 1031.0 - 0.0
24/04:30am -4.9 -7.5 -5.4 96 0.0 CALM 0 0 0 0 1030.9 - 0.0
24/04:00am -4.0 -7.9 -4.4 97 0.0 NNW 7 9 4 5 1030.8 - 0.0
24/03:37am -3.7 -7.4 -4.1 97 0.0 NE 6 7 3 4 1030.6 - 0.0
24/03:30am -3.0 -6.6 -3.4 97 0.0 N 6 7 3 4 1030.5 - 0.0
24/03:29am -3.0 -6.6 -3.4 97 0.0 N 6 7 3 4 1030.5 - 0.0
24/03:00am -3.2 -5.7 -3.7 96 0.0 CALM 0 7 0 4 1030.6 1031.1 0.0
24/02:52am -3.3 -5.8 -4.0 95 0.1 CALM 0 0 0 0 1030.6 - 0.0
24/02:42am -2.3 -4.7 -2.8 96 0.1 CALM 0 0 0 0 1030.5 - 0.0
24/02:38am -3.4 -5.9 -4.2 94 0.1 CALM 0 0 0 0 1030.5 - 0.0
24/02:30am -3.0 -5.5 -3.8 94 0.1 CALM 0 0 0 0 1030.5 - 0.0
24/02:22am -2.2 -5.0 -2.9 95 0.1 NNE 2 7 1 4 1030.5 - 0.0
24/02:00am -1.8 -4.5 -2.4 96 0.1 NE 2 6 1 3 1030.5 - 0.0
24/01:30am -2.2 -4.6 -3.0 94 0.2 CALM 0 6 0 3 1030.5 - 0.0
24/01:26am -2.8 -5.3 -3.8 93 0.2 CALM 0 0 0 0 1030.5 - 0.0
24/01:07am -2.5 -4.9 -3.2 95 0.1 CALM 0 0 0 0 1030.3 - 0.0
24/01:00am -1.8 -4.1 -2.4 96 0.1 CALM 0 0 0 0 1030.3 - 0.0
24/12:49am -1.6 -4.3 -2.3 95 0.2 N 2 6 1 3 1030.3 - 0.0
24/12:47am -1.7 -4.4 -2.4 95 0.2 N 2 6 1 3 1030.3 - 0.0
24/12:30am -0.7 -4.0 -1.3 96 0.2 N 6 7 3 4 1030.4 - 0.0
24/12:00am -1.1 -3.3 -1.8 95 0.2 CALM 0 0 0 0 1030.3 1030.8 0.0
 
Date/Time
EST
Tmp

°C
App
Tmp
°C
Dew
Point
°C
Rel
Hum
%
Delta-T

°C
Wind Press
QNH
hPa
Press
MSL
hPa
Rain
since
9 am
mm
Dir
 
Spd
km/h
Gust
km/h
Spd
kts
Gust
kts
23/11:30pm -1.3 -3.6 -2.7 90 0.4 CALM 0 6 0 3 1030.4 - 0.0
23/11:06pm 0.6 -2.5 0.0 96 0.2 ESE 6 7 3 4 1030.1 - 0.0
23/11:00pm 0.2 -3.0 -0.4 96 0.2 ESE 6 7 3 4 1030.1 - 0.0
23/10:48pm -0.2 -2.3 -0.9 95 0.2 CALM 0 0 0 0 1030.1 - 0.0
23/10:30pm 0.6 -1.4 -0.3 94 0.3 CALM 0 0 0 0 1030.3 - 0.0
23/10:00pm 0.9 -2.2 -0.1 93 0.4 N 6 7 3 4 1030.4 - 0.0

Latest Capital City Observations: Canberra | Sydney | Melbourne | Brisbane | Adelaide | Perth | Hobart | Darwin

Other Formats:

Comma delimited format used in spreadsheet applications
http://www.bom.gov.au/fwo/IDN60903/IDN60903.94926.axf

JavaScript Object Notation format (JSON) in row-major order
http://www.bom.gov.au/fwo/IDN60903/IDN60903.94926.json